Villacoublay, Vélizy – Villacoublay Air Base (LFPV)

NameVélizy – Villacoublay Air Base
CityVillacoublay
CountryFrance
ICAOLFPV
IATAVIY
Altitude54 m
CoordinatesGoogle Map
Live Air TrafficLiveATC.net
METARLFPV 231300Z AUTO 31005KT 210V360 8000 BKN025 13/07 Q1030 NOSIG
2019-03-23 13:00:00 Wind: West-Northwest (310°) 2.57 m/s - Visibility: 8000 m - Temperature: 13 °C - Dew point: 7 °C - Humidity: 67.2% - Pressure: 1030 hPa

Sorry, no flights used the airport in this database.